Airfield :
LOGIN :

Register | Disclaimer

   EN    FR    IT 

 










Legend :    VFR   Marginal VFR   IFR   Intensive IFR   Very Intensive IFR
Visi :
Ceiling :
>= 8 km
>= 3000ft
5 to 8 km
1000 to 3000 ft
1500m to 5 km
500 to 1000 ft
800 to 1500m
200 to 500 ft
< 800m
< 200 ft
Symbols :   Thunderstorms  Fog  Heavy snow  Heavy precipitations  Wind > 20 kt
SIGMETs :     Misc.  Thunderstorms  Icing  Turbulence  Mountain Waves  Volcanic Ashes






- Airport Elevation : 308 ft
- IATA code : POZ


EPPO - Poznan-Lawica

CURRENT METAR :
  • 100330Z 26002KT CAVOK M01/M04 Q1025

EXPIRED METARs :
  • 100300Z 25002KT CAVOK M01/M03 Q1025
  • 100230Z 27003KT CAVOK 00/M03 Q1025
  • 100200Z 24002KT CAVOK 01/M03 Q1025
  • 100130Z 29003KT CAVOK 00/M03 Q1025
  • 100100Z 29004KT CAVOK 02/M03 Q1025
  • 100030Z 29005KT CAVOK 02/M03 Q1025

TAF TAF EPPO
Valid from the 10 at 00:00 until the 11 at 00:00 UTC


092330Z 1000/1024 33004KT CAVOK



MET'MAP, your aeronautical weather chart ! - Copyright ORBIFLY December 2007 - Disclaimer

ORBIFLY MET'MAP TEAM :

Programming & Development : Alexandra Zaïnal
Concept & original design : Baudouin d'Aumeries
Assistance for programming : Marc-Olivier Méhu
Technical & hardware support : Manuel Goepfert

Contact : metmap@orbifly.com




SOURCES & CREDITS :

   NOAA